sensor_id;sensor_type;location;lat;lon;timestamp;temperature;humidity
16814;DHT22;8524;57.650;11.926;2023-06-26T00:00:27;14.70;99.90
16814;DHT22;8524;57.650;11.926;2023-06-26T00:02:54;14.80;99.90
16814;DHT22;8524;57.650;11.926;2023-06-26T00:05:21;14.70;99.90
16814;DHT22;8524;57.650;11.926;2023-06-26T00:07:49;14.70;99.90
16814;DHT22;8524;57.650;11.926;2023-06-26T00:10:16;14.70;99.90
16814;DHT22;8524;57.650;11.926;2023-06-26T00:12:44;14.70;99.90
16814;DHT22;8524;57.650;11.926;2023-06-26T00:15:11;14.70;99.90
16814;DHT22;8524;57.650;11.926;2023-06-26T00:17:38;14.60;99.90
16814;DHT22;8524;57.650;11.926;2023-06-26T00:20:06;14.70;99.90
16814;DHT22;8524;57.650;11.926;2023-06-26T00:22:33;14.70;99.90
16814;DHT22;8524;57.650;11.926;2023-06-26T00:25:00;14.60;99.90
16814;DHT22;8524;57.650;11.926;2023-06-26T00:27:27;14.60;99.90
16814;DHT22;8524;57.650;11.926;2023-06-26T00:29:56;14.70;99.90
16814;DHT22;8524;57.650;11.926;2023-06-26T00:32:23;14.60;99.90
16814;DHT22;8524;57.650;11.926;2023-06-26T00:34:50;14.60;99.90
16814;DHT22;8524;57.650;11.926;2023-06-26T00:37:18;14.60;99.90
16814;DHT22;8524;57.650;11.926;2023-06-26T00:39:47;14.60;99.90
16814;DHT22;8524;57.650;11.926;2023-06-26T00:42:14;14.50;99.90
16814;DHT22;8524;57.650;11.926;2023-06-26T00:44:41;14.50;99.90
16814;DHT22;8524;57.650;11.926;2023-06-26T00:47:10;14.50;99.90
16814;DHT22;8524;57.650;11.926;2023-06-26T00:49:39;14.50;99.90
16814;DHT22;8524;57.650;11.926;2023-06-26T00:52:06;14.40;99.90
16814;DHT22;8524;57.650;11.926;2023-06-26T00:54:33;14.40;99.90
16814;DHT22;8524;57.650;11.926;2023-06-26T00:57:00;14.30;99.90
16814;DHT22;8524;57.650;11.926;2023-06-26T00:59:27;14.30;99.90
16814;DHT22;8524;57.650;11.926;2023-06-26T01:01:54;14.30;99.90
16814;DHT22;8524;57.650;11.926;2023-06-26T01:04:22;14.20;99.90
16814;DHT22;8524;57.650;11.926;2023-06-26T01:06:55;14.30;99.90
16814;DHT22;8524;57.650;11.926;2023-06-26T01:09:23;14.30;99.90
16814;DHT22;8524;57.650;11.926;2023-06-26T01:11:50;14.40;99.90
16814;DHT22;8524;57.650;11.926;2023-06-26T01:14:18;14.50;99.90
16814;DHT22;8524;57.650;11.926;2023-06-26T01:16:45;14.40;99.90
16814;DHT22;8524;57.650;11.926;2023-06-26T01:19:19;14.50;99.90
16814;DHT22;8524;57.650;11.926;2023-06-26T01:21:56;14.50;99.90
16814;DHT22;8524;57.650;11.926;2023-06-26T01:24:25;14.30;99.90
16814;DHT22;8524;57.650;11.926;2023-06-26T01:27:01;14.30;99.90
16814;DHT22;8524;57.650;11.926;2023-06-26T01:29:30;14.30;99.90
16814;DHT22;8524;57.650;11.926;2023-06-26T01:31:58;14.10;99.90
16814;DHT22;8524;57.650;11.926;2023-06-26T01:34:26;14.00;99.90
16814;DHT22;8524;57.650;11.926;2023-06-26T01:36:53;14.10;99.90
16814;DHT22;8524;57.650;11.926;2023-06-26T01:39:20;14.10;99.90
16814;DHT22;8524;57.650;11.926;2023-06-26T01:41:47;14.20;99.90
16814;DHT22;8524;57.650;11.926;2023-06-26T01:44:23;14.20;99.90
16814;DHT22;8524;57.650;11.926;2023-06-26T01:47:01;14.20;99.90
16814;DHT22;8524;57.650;11.926;2023-06-26T01:49:44;14.20;99.90
16814;DHT22;8524;57.650;11.926;2023-06-26T01:52:19;14.20;99.90
16814;DHT22;8524;57.650;11.926;2023-06-26T01:54:53;14.20;99.90
16814;DHT22;8524;57.650;11.926;2023-06-26T01:57:21;14.10;99.90
16814;DHT22;8524;57.650;11.926;2023-06-26T01:59:53;13.90;99.90
16814;DHT22;8524;57.650;11.926;2023-06-26T02:02:23;13.70;99.90
16814;DHT22;8524;57.650;11.926;2023-06-26T02:04:51;13.60;99.90
16814;DHT22;8524;57.650;11.926;2023-06-26T02:07:18;13.60;99.90
16814;DHT22;8524;57.650;11.926;2023-06-26T02:09:45;13.50;99.90
16814;DHT22;8524;57.650;11.926;2023-06-26T02:12:12;13.60;99.90
16814;DHT22;8524;57.650;11.926;2023-06-26T02:14:39;13.70;99.90
16814;DHT22;8524;57.650;11.926;2023-06-26T02:17:07;13.70;99.90
16814;DHT22;8524;57.650;11.926;2023-06-26T02:19:34;13.50;99.90
16814;DHT22;8524;57.650;11.926;2023-06-26T02:22:01;13.60;99.90
16814;DHT22;8524;57.650;11.926;2023-06-26T02:24:28;13.70;99.90
16814;DHT22;8524;57.650;11.926;2023-06-26T02:26:56;13.60;99.90
16814;DHT22;8524;57.650;11.926;2023-06-26T02:29:23;13.50;99.90
16814;DHT22;8524;57.650;11.926;2023-06-26T02:31:50;13.60;99.90
16814;DHT22;8524;57.650;11.926;2023-06-26T02:34:18;13.60;99.90
16814;DHT22;8524;57.650;11.926;2023-06-26T02:36:45;13.60;99.90
16814;DHT22;8524;57.650;11.926;2023-06-26T02:39:12;13.70;99.90
16814;DHT22;8524;57.650;11.926;2023-06-26T02:41:39;13.80;99.90
16814;DHT22;8524;57.650;11.926;2023-06-26T02:44:06;13.80;99.90
16814;DHT22;8524;57.650;11.926;2023-06-26T02:46:33;13.70;99.90
16814;DHT22;8524;57.650;11.926;2023-06-26T02:49:00;13.80;99.90
16814;DHT22;8524;57.650;11.926;2023-06-26T02:51:29;13.80;99.90
16814;DHT22;8524;57.650;11.926;2023-06-26T02:53:56;13.90;99.90
16814;DHT22;8524;57.650;11.926;2023-06-26T02:56:23;14.00;99.90
16814;DHT22;8524;57.650;11.926;2023-06-26T02:58:50;14.00;99.90
16814;DHT22;8524;57.650;11.926;2023-06-26T03:01:17;14.00;99.90
16814;DHT22;8524;57.650;11.926;2023-06-26T03:03:46;14.00;99.90
16814;DHT22;8524;57.650;11.926;2023-06-26T03:06:13;14.10;99.90
16814;DHT22;8524;57.650;11.926;2023-06-26T03:08:42;14.20;99.90
16814;DHT22;8524;57.650;11.926;2023-06-26T03:11:09;14.30;99.90
16814;DHT22;8524;57.650;11.926;2023-06-26T03:13:37;14.30;99.90
16814;DHT22;8524;57.650;11.926;2023-06-26T03:16:04;14.40;99.90
16814;DHT22;8524;57.650;11.926;2023-06-26T03:18:31;14.50;99.90
16814;DHT22;8524;57.650;11.926;2023-06-26T03:20:59;14.50;99.90
16814;DHT22;8524;57.650;11.926;2023-06-26T03:23:26;14.50;99.90
16814;DHT22;8524;57.650;11.926;2023-06-26T03:25:55;14.60;99.90
16814;DHT22;8524;57.650;11.926;2023-06-26T03:28:22;14.60;99.90
16814;DHT22;8524;57.650;11.926;2023-06-26T03:30:49;14.60;99.90
16814;DHT22;8524;57.650;11.926;2023-06-26T03:33:16;14.70;99.90
16814;DHT22;8524;57.650;11.926;2023-06-26T03:35:43;14.80;99.90
16814;DHT22;8524;57.650;11.926;2023-06-26T03:38:10;14.80;99.90
16814;DHT22;8524;57.650;11.926;2023-06-26T03:40:37;14.90;99.90
16814;DHT22;8524;57.650;11.926;2023-06-26T03:43:05;14.90;99.90
16814;DHT22;8524;57.650;11.926;2023-06-26T03:45:32;14.90;99.90
16814;DHT22;8524;57.650;11.926;2023-06-26T03:47:59;15.00;99.90
16814;DHT22;8524;57.650;11.926;2023-06-26T03:50:26;15.00;99.90
16814;DHT22;8524;57.650;11.926;2023-06-26T03:52:53;15.00;99.90
16814;DHT22;8524;57.650;11.926;2023-06-26T03:55:21;15.00;99.90
16814;DHT22;8524;57.650;11.926;2023-06-26T03:57:49;15.00;99.90
16814;DHT22;8524;57.650;11.926;2023-06-26T04:00:18;15.10;99.90
16814;DHT22;8524;57.650;11.926;2023-06-26T04:02:45;15.00;99.90
16814;DHT22;8524;57.650;11.926;2023-06-26T04:05:12;15.10;99.90
16814;DHT22;8524;57.650;11.926;2023-06-26T04:07:40;15.20;99.90
16814;DHT22;8524;57.650;11.926;2023-06-26T04:10:08;15.20;99.90
16814;DHT22;8524;57.650;11.926;2023-06-26T04:12:35;15.30;99.90
16814;DHT22;8524;57.650;11.926;2023-06-26T04:15:02;15.50;99.90
16814;DHT22;8524;57.650;11.926;2023-06-26T04:17:30;15.60;99.90
16814;DHT22;8524;57.650;11.926;2023-06-26T04:19:57;15.60;99.90
16814;DHT22;8524;57.650;11.926;2023-06-26T04:22:24;15.70;99.90
16814;DHT22;8524;57.650;11.926;2023-06-26T04:24:51;15.80;99.90
16814;DHT22;8524;57.650;11.926;2023-06-26T04:27:18;16.10;99.90
16814;DHT22;8524;57.650;11.926;2023-06-26T04:29:45;16.30;99.90
16814;DHT22;8524;57.650;11.926;2023-06-26T04:32:12;16.40;99.90
16814;DHT22;8524;57.650;11.926;2023-06-26T04:34:41;16.60;99.90
16814;DHT22;8524;57.650;11.926;2023-06-26T04:37:09;16.70;99.90
16814;DHT22;8524;57.650;11.926;2023-06-26T04:39:37;16.90;99.90
16814;DHT22;8524;57.650;11.926;2023-06-26T04:42:05;17.00;99.90
16814;DHT22;8524;57.650;11.926;2023-06-26T04:44:33;17.20;99.90
16814;DHT22;8524;57.650;11.926;2023-06-26T04:47:00;17.30;99.90
16814;DHT22;8524;57.650;11.926;2023-06-26T04:49:27;17.50;99.90
16814;DHT22;8524;57.650;11.926;2023-06-26T04:51:56;17.60;99.90
16814;DHT22;8524;57.650;11.926;2023-06-26T04:54:26;17.70;99.90
16814;DHT22;8524;57.650;11.926;2023-06-26T04:56:53;17.90;99.90
16814;DHT22;8524;57.650;11.926;2023-06-26T04:59:20;18.00;99.90
16814;DHT22;8524;57.650;11.926;2023-06-26T05:01:47;18.10;99.90
16814;DHT22;8524;57.650;11.926;2023-06-26T05:04:14;18.20;99.90
16814;DHT22;8524;57.650;11.926;2023-06-26T05:06:41;18.30;99.90
16814;DHT22;8524;57.650;11.926;2023-06-26T05:09:10;18.50;99.90
16814;DHT22;8524;57.650;11.926;2023-06-26T05:11:37;18.60;99.90
16814;DHT22;8524;57.650;11.926;2023-06-26T05:14:04;18.70;99.90
16814;DHT22;8524;57.650;11.926;2023-06-26T05:16:33;18.90;99.90
16814;DHT22;8524;57.650;11.926;2023-06-26T05:19:00;19.00;99.90
16814;DHT22;8524;57.650;11.926;2023-06-26T05:21:28;19.10;99.90
16814;DHT22;8524;57.650;11.926;2023-06-26T05:23:57;19.20;99.90
16814;DHT22;8524;57.650;11.926;2023-06-26T05:26:27;19.30;99.90
16814;DHT22;8524;57.650;11.926;2023-06-26T05:28:54;19.40;99.90
16814;DHT22;8524;57.650;11.926;2023-06-26T05:31:22;19.50;99.90
16814;DHT22;8524;57.650;11.926;2023-06-26T05:33:49;19.70;99.90
16814;DHT22;8524;57.650;11.926;2023-06-26T05:36:18;19.80;99.90
16814;DHT22;8524;57.650;11.926;2023-06-26T05:38:47;20.10;99.90
16814;DHT22;8524;57.650;11.926;2023-06-26T05:41:15;20.30;99.90
16814;DHT22;8524;57.650;11.926;2023-06-26T05:43:44;20.50;99.90
16814;DHT22;8524;57.650;11.926;2023-06-26T05:46:11;20.80;99.90
16814;DHT22;8524;57.650;11.926;2023-06-26T05:48:38;21.00;99.90
16814;DHT22;8524;57.650;11.926;2023-06-26T05:51:05;21.30;99.90
16814;DHT22;8524;57.650;11.926;2023-06-26T05:53:33;21.50;99.90
16814;DHT22;8524;57.650;11.926;2023-06-26T05:56:00;21.90;99.90
16814;DHT22;8524;57.650;11.926;2023-06-26T05:58:28;22.10;99.90
16814;DHT22;8524;57.650;11.926;2023-06-26T06:00:56;22.50;99.90
16814;DHT22;8524;57.650;11.926;2023-06-26T06:03:23;22.80;99.90
16814;DHT22;8524;57.650;11.926;2023-06-26T06:05:50;23.30;99.90
16814;DHT22;8524;57.650;11.926;2023-06-26T06:08:18;23.40;99.90
16814;DHT22;8524;57.650;11.926;2023-06-26T06:10:45;23.50;99.90
16814;DHT22;8524;57.650;11.926;2023-06-26T06:13:12;23.80;99.90
16814;DHT22;8524;57.650;11.926;2023-06-26T06:15:39;23.90;99.90
16814;DHT22;8524;57.650;11.926;2023-06-26T06:18:07;24.20;99.90
16814;DHT22;8524;57.650;11.926;2023-06-26T06:20:35;24.40;99.90
16814;DHT22;8524;57.650;11.926;2023-06-26T06:23:02;24.60;99.90
16814;DHT22;8524;57.650;11.926;2023-06-26T06:25:29;24.50;99.90
16814;DHT22;8524;57.650;11.926;2023-06-26T06:27:56;24.80;99.90
16814;DHT22;8524;57.650;11.926;2023-06-26T06:30:23;24.90;99.90
16814;DHT22;8524;57.650;11.926;2023-06-26T06:32:50;25.30;99.90
16814;DHT22;8524;57.650;11.926;2023-06-26T06:35:19;25.50;99.90
16814;DHT22;8524;57.650;11.926;2023-06-26T06:37:46;25.60;99.90
16814;DHT22;8524;57.650;11.926;2023-06-26T06:40:14;25.80;99.90
16814;DHT22;8524;57.650;11.926;2023-06-26T06:42:41;25.80;99.90
16814;DHT22;8524;57.650;11.926;2023-06-26T06:45:09;25.90;99.90
16814;DHT22;8524;57.650;11.926;2023-06-26T06:47:36;26.20;99.90
16814;DHT22;8524;57.650;11.926;2023-06-26T06:50:03;26.30;99.90
16814;DHT22;8524;57.650;11.926;2023-06-26T06:52:36;26.20;99.90
16814;DHT22;8524;57.650;11.926;2023-06-26T06:55:05;26.30;99.90
16814;DHT22;8524;57.650;11.926;2023-06-26T06:57:34;26.60;99.90
16814;DHT22;8524;57.650;11.926;2023-06-26T07:00:03;26.50;99.90
16814;DHT22;8524;57.650;11.926;2023-06-26T07:02:31;26.70;99.90
16814;DHT22;8524;57.650;11.926;2023-06-26T07:04:58;27.00;99.90
16814;DHT22;8524;57.650;11.926;2023-06-26T07:07:28;27.30;99.90
16814;DHT22;8524;57.650;11.926;2023-06-26T07:09:58;27.50;99.90
16814;DHT22;8524;57.650;11.926;2023-06-26T07:12:25;27.80;99.90
16814;DHT22;8524;57.650;11.926;2023-06-26T07:14:52;27.30;99.90
16814;DHT22;8524;57.650;11.926;2023-06-26T07:17:19;27.40;99.90
16814;DHT22;8524;57.650;11.926;2023-06-26T07:19:47;27.40;99.90
16814;DHT22;8524;57.650;11.926;2023-06-26T07:22:14;27.70;99.90
16814;DHT22;8524;57.650;11.926;2023-06-26T07:24:41;27.50;99.90
16814;DHT22;8524;57.650;11.926;2023-06-26T07:27:09;27.60;99.90
16814;DHT22;8524;57.650;11.926;2023-06-26T07:29:36;27.40;99.90
16814;DHT22;8524;57.650;11.926;2023-06-26T07:32:04;27.30;99.90
16814;DHT22;8524;57.650;11.926;2023-06-26T07:34:31;27.10;99.90
16814;DHT22;8524;57.650;11.926;2023-06-26T07:36:59;27.00;99.90
16814;DHT22;8524;57.650;11.926;2023-06-26T07:39:26;27.00;99.90
16814;DHT22;8524;57.650;11.926;2023-06-26T07:41:53;27.10;99.90
16814;DHT22;8524;57.650;11.926;2023-06-26T07:44:21;27.30;99.90
16814;DHT22;8524;57.650;11.926;2023-06-26T07:46:48;27.40;99.90
16814;DHT22;8524;57.650;11.926;2023-06-26T07:49:15;27.70;99.90
16814;DHT22;8524;57.650;11.926;2023-06-26T07:51:42;27.40;99.90
16814;DHT22;8524;57.650;11.926;2023-06-26T07:54:09;27.20;99.90
16814;DHT22;8524;57.650;11.926;2023-06-26T07:56:53;26.70;99.90
16814;DHT22;8524;57.650;11.926;2023-06-26T07:59:23;26.40;99.90
16814;DHT22;8524;57.650;11.926;2023-06-26T08:01:51;26.00;99.90
16814;DHT22;8524;57.650;11.926;2023-06-26T08:04:19;26.00;99.90
16814;DHT22;8524;57.650;11.926;2023-06-26T08:06:48;26.10;99.90
16814;DHT22;8524;57.650;11.926;2023-06-26T08:09:16;26.50;99.90
16814;DHT22;8524;57.650;11.926;2023-06-26T08:11:43;26.90;99.90
16814;DHT22;8524;57.650;11.926;2023-06-26T08:14:10;26.80;99.90
16814;DHT22;8524;57.650;11.926;2023-06-26T08:16:39;26.70;99.90
16814;DHT22;8524;57.650;11.926;2023-06-26T08:19:06;26.80;99.90
16814;DHT22;8524;57.650;11.926;2023-06-26T08:21:33;27.10;99.90
16814;DHT22;8524;57.650;11.926;2023-06-26T08:24:00;27.40;99.90
16814;DHT22;8524;57.650;11.926;2023-06-26T08:26:28;27.60;99.90
16814;DHT22;8524;57.650;11.926;2023-06-26T08:28:55;27.80;99.90
16814;DHT22;8524;57.650;11.926;2023-06-26T08:31:22;27.60;99.90
16814;DHT22;8524;57.650;11.926;2023-06-26T08:33:50;27.20;99.90
16814;DHT22;8524;57.650;11.926;2023-06-26T08:36:18;27.40;99.90
16814;DHT22;8524;57.650;11.926;2023-06-26T08:38:47;27.50;99.90
16814;DHT22;8524;57.650;11.926;2023-06-26T08:41:14;27.40;99.90
16814;DHT22;8524;57.650;11.926;2023-06-26T08:43:41;26.90;99.90
16814;DHT22;8524;57.650;11.926;2023-06-26T08:46:09;26.50;99.90
16814;DHT22;8524;57.650;11.926;2023-06-26T08:48:36;26.50;99.90
16814;DHT22;8524;57.650;11.926;2023-06-26T08:51:09;26.40;99.90
16814;DHT22;8524;57.650;11.926;2023-06-26T08:53:42;26.50;99.90
16814;DHT22;8524;57.650;11.926;2023-06-26T08:56:11;26.40;99.90
16814;DHT22;8524;57.650;11.926;2023-06-26T08:58:41;26.20;99.90
16814;DHT22;8524;57.650;11.926;2023-06-26T09:01:09;26.00;99.90
16814;DHT22;8524;57.650;11.926;2023-06-26T09:03:37;25.60;99.90
16814;DHT22;8524;57.650;11.926;2023-06-26T09:06:06;25.50;99.90
16814;DHT22;8524;57.650;11.926;2023-06-26T09:08:33;26.00;99.90
16814;DHT22;8524;57.650;11.926;2023-06-26T09:11:00;26.20;99.90
16814;DHT22;8524;57.650;11.926;2023-06-26T09:13:29;26.90;99.90
16814;DHT22;8524;57.650;11.926;2023-06-26T09:15:56;27.40;99.90
16814;DHT22;8524;57.650;11.926;2023-06-26T09:18:24;27.50;99.90
16814;DHT22;8524;57.650;11.926;2023-06-26T09:20:51;27.60;99.90
16814;DHT22;8524;57.650;11.926;2023-06-26T09:23:21;27.80;99.90
16814;DHT22;8524;57.650;11.926;2023-06-26T09:25:49;28.00;99.90
16814;DHT22;8524;57.650;11.926;2023-06-26T09:28:18;28.30;99.90
16814;DHT22;8524;57.650;11.926;2023-06-26T09:30:45;28.00;99.90
16814;DHT22;8524;57.650;11.926;2023-06-26T09:33:16;27.70;99.90
16814;DHT22;8524;57.650;11.926;2023-06-26T09:35:44;27.70;99.90
16814;DHT22;8524;57.650;11.926;2023-06-26T09:38:12;28.00;99.90
16814;DHT22;8524;57.650;11.926;2023-06-26T09:40:40;28.50;99.90
16814;DHT22;8524;57.650;11.926;2023-06-26T09:43:09;28.90;99.90
16814;DHT22;8524;57.650;11.926;2023-06-26T09:45:36;29.10;99.90
16814;DHT22;8524;57.650;11.926;2023-06-26T09:48:04;29.30;99.90
16814;DHT22;8524;57.650;11.926;2023-06-26T09:50:33;29.40;99.90
16814;DHT22;8524;57.650;11.926;2023-06-26T09:53:07;29.10;99.90
16814;DHT22;8524;57.650;11.926;2023-06-26T09:55:35;29.10;99.90
16814;DHT22;8524;57.650;11.926;2023-06-26T09:58:04;29.30;99.90
16814;DHT22;8524;57.650;11.926;2023-06-26T10:00:32;29.60;99.90
16814;DHT22;8524;57.650;11.926;2023-06-26T10:03:00;29.60;99.90
16814;DHT22;8524;57.650;11.926;2023-06-26T10:05:27;30.20;99.90
16814;DHT22;8524;57.650;11.926;2023-06-26T10:07:54;30.10;98.20
16814;DHT22;8524;57.650;11.926;2023-06-26T10:10:23;29.60;97.70
16814;DHT22;8524;57.650;11.926;2023-06-26T10:12:54;29.10;99.90
16814;DHT22;8524;57.650;11.926;2023-06-26T10:15:27;29.00;99.90
16814;DHT22;8524;57.650;11.926;2023-06-26T10:17:56;29.10;99.90
16814;DHT22;8524;57.650;11.926;2023-06-26T10:20:24;29.70;99.90
16814;DHT22;8524;57.650;11.926;2023-06-26T10:22:53;30.20;95.30
16814;DHT22;8524;57.650;11.926;2023-06-26T10:25:24;29.80;96.80
16814;DHT22;8524;57.650;11.926;2023-06-26T10:27:56;29.90;96.40
16814;DHT22;8524;57.650;11.926;2023-06-26T10:30:28;29.50;96.10
16814;DHT22;8524;57.650;11.926;2023-06-26T10:32:56;29.90;95.70
16814;DHT22;8524;57.650;11.926;2023-06-26T10:35:24;30.30;93.50
16814;DHT22;8524;57.650;11.926;2023-06-26T10:37:52;30.10;94.40
16814;DHT22;8524;57.650;11.926;2023-06-26T10:40:27;30.00;93.80
16814;DHT22;8524;57.650;11.926;2023-06-26T10:43:06;29.90;95.50
16814;DHT22;8524;57.650;11.926;2023-06-26T10:45:36;29.70;98.80
16814;DHT22;8524;57.650;11.926;2023-06-26T10:48:04;29.80;95.10
16814;DHT22;8524;57.650;11.926;2023-06-26T10:50:32;29.40;96.30
16814;DHT22;8524;57.650;11.926;2023-06-26T10:53:15;29.60;95.80
16814;DHT22;8524;57.650;11.926;2023-06-26T10:55:50;30.00;95.30
16814;DHT22;8524;57.650;11.926;2023-06-26T10:58:32;29.90;93.20
16814;DHT22;8524;57.650;11.926;2023-06-26T11:01:22;29.80;91.60
16814;DHT22;8524;57.650;11.926;2023-06-26T11:04:01;29.80;81.50
16814;DHT22;8524;57.650;11.926;2023-06-26T11:06:29;29.80;80.20
16814;DHT22;8524;57.650;11.926;2023-06-26T11:09:01;29.90;76.90
16814;DHT22;8524;57.650;11.926;2023-06-26T11:11:56;29.80;68.00
16814;DHT22;8524;57.650;11.926;2023-06-26T11:14:31;30.00;70.50
16814;DHT22;8524;57.650;11.926;2023-06-26T11:17:02;30.20;65.20
16814;DHT22;8524;57.650;11.926;2023-06-26T11:19:30;30.00;61.50
16814;DHT22;8524;57.650;11.926;2023-06-26T11:22:02;30.00;66.70
16814;DHT22;8524;57.650;11.926;2023-06-26T11:24:31;29.80;59.40
16814;DHT22;8524;57.650;11.926;2023-06-26T11:27:04;29.60;60.80
16814;DHT22;8524;57.650;11.926;2023-06-26T11:29:32;29.50;65.10
16814;DHT22;8524;57.650;11.926;2023-06-26T11:32:02;29.40;65.50
16814;DHT22;8524;57.650;11.926;2023-06-26T11:34:31;29.50;62.90
16814;DHT22;8524;57.650;11.926;2023-06-26T11:36:58;29.60;62.40
16814;DHT22;8524;57.650;11.926;2023-06-26T11:39:29;29.40;67.90
16814;DHT22;8524;57.650;11.926;2023-06-26T11:41:56;29.70;71.10
16814;DHT22;8524;57.650;11.926;2023-06-26T11:44:23;29.80;68.50
16814;DHT22;8524;57.650;11.926;2023-06-26T11:46:54;29.80;70.30
16814;DHT22;8524;57.650;11.926;2023-06-26T11:49:24;29.70;71.90
16814;DHT22;8524;57.650;11.926;2023-06-26T11:51:53;29.70;71.70
16814;DHT22;8524;57.650;11.926;2023-06-26T11:54:27;29.50;74.00
16814;DHT22;8524;57.650;11.926;2023-06-26T11:56:55;29.50;74.40
16814;DHT22;8524;57.650;11.926;2023-06-26T11:59:23;29.50;73.00
16814;DHT22;8524;57.650;11.926;2023-06-26T12:01:51;29.30;76.70
16814;DHT22;8524;57.650;11.926;2023-06-26T12:04:20;29.20;77.40
16814;DHT22;8524;57.650;11.926;2023-06-26T12:06:51;28.90;76.20
16814;DHT22;8524;57.650;11.926;2023-06-26T12:09:23;28.70;82.00
16814;DHT22;8524;57.650;11.926;2023-06-26T12:11:53;28.60;82.40
16814;DHT22;8524;57.650;11.926;2023-06-26T12:14:20;28.30;86.10
16814;DHT22;8524;57.650;11.926;2023-06-26T12:16:48;28.30;90.30
16814;DHT22;8524;57.650;11.926;2023-06-26T12:19:16;28.30;91.50
16814;DHT22;8524;57.650;11.926;2023-06-26T12:21:49;28.20;92.10
16814;DHT22;8524;57.650;11.926;2023-06-26T12:24:20;28.00;93.60
16814;DHT22;8524;57.650;11.926;2023-06-26T12:26:50;27.70;94.70
16814;DHT22;8524;57.650;11.926;2023-06-26T12:29:20;27.50;96.70
16814;DHT22;8524;57.650;11.926;2023-06-26T12:31:50;27.40;96.80
16814;DHT22;8524;57.650;11.926;2023-06-26T12:34:20;27.20;97.00
16814;DHT22;8524;57.650;11.926;2023-06-26T12:36:50;27.20;96.20
16814;DHT22;8524;57.650;11.926;2023-06-26T12:39:19;27.30;96.20
16814;DHT22;8524;57.650;11.926;2023-06-26T12:41:47;27.40;94.90
16814;DHT22;8524;57.650;11.926;2023-06-26T12:44:21;27.40;93.90
16814;DHT22;8524;57.650;11.926;2023-06-26T12:46:50;27.50;91.80
16814;DHT22;8524;57.650;11.926;2023-06-26T12:49:20;27.60;87.50
16814;DHT22;8524;57.650;11.926;2023-06-26T12:51:49;27.60;80.20
16814;DHT22;8524;57.650;11.926;2023-06-26T12:54:16;27.60;81.50
16814;DHT22;8524;57.650;11.926;2023-06-26T12:56:43;27.70;80.50
16814;DHT22;8524;57.650;11.926;2023-06-26T12:59:10;27.70;85.00
16814;DHT22;8524;57.650;11.926;2023-06-26T13:01:37;27.70;88.10
16814;DHT22;8524;57.650;11.926;2023-06-26T13:04:05;27.80;86.40
16814;DHT22;8524;57.650;11.926;2023-06-26T13:06:33;27.90;87.90
16814;DHT22;8524;57.650;11.926;2023-06-26T13:09:02;28.10;88.90
16814;DHT22;8524;57.650;11.926;2023-06-26T13:11:30;28.30;88.30
16814;DHT22;8524;57.650;11.926;2023-06-26T13:13:57;28.30;87.00
16814;DHT22;8524;57.650;11.926;2023-06-26T13:16:24;28.40;87.40
16814;DHT22;8524;57.650;11.926;2023-06-26T13:18:52;28.40;85.80
16814;DHT22;8524;57.650;11.926;2023-06-26T13:21:19;28.30;86.70
16814;DHT22;8524;57.650;11.926;2023-06-26T13:23:45;28.20;89.20
16814;DHT22;8524;57.650;11.926;2023-06-26T13:26:14;28.10;86.30
16814;DHT22;8524;57.650;11.926;2023-06-26T13:28:41;28.00;86.70
16814;DHT22;8524;57.650;11.926;2023-06-26T13:31:08;27.90;88.20
16814;DHT22;8524;57.650;11.926;2023-06-26T13:33:35;27.90;89.30
16814;DHT22;8524;57.650;11.926;2023-06-26T13:36:02;27.90;90.20
16814;DHT22;8524;57.650;11.926;2023-06-26T13:38:32;27.80;90.20
16814;DHT22;8524;57.650;11.926;2023-06-26T13:41:00;27.70;90.30
16814;DHT22;8524;57.650;11.926;2023-06-26T13:43:29;27.60;91.50
16814;DHT22;8524;57.650;11.926;2023-06-26T13:45:56;27.40;92.70
16814;DHT22;8524;57.650;11.926;2023-06-26T13:48:23;27.00;99.90
16814;DHT22;8524;57.650;11.926;2023-06-26T13:50:53;26.00;99.90
16814;DHT22;8524;57.650;11.926;2023-06-26T13:53:21;25.20;99.90
16814;DHT22;8524;57.650;11.926;2023-06-26T13:55:49;24.30;99.90
16814;DHT22;8524;57.650;11.926;2023-06-26T13:58:16;24.00;99.90
16814;DHT22;8524;57.650;11.926;2023-06-26T14:00:46;23.70;99.90
16814;DHT22;8524;57.650;11.926;2023-06-26T14:03:13;23.40;99.90
16814;DHT22;8524;57.650;11.926;2023-06-26T14:05:40;23.40;99.90
16814;DHT22;8524;57.650;11.926;2023-06-26T14:08:08;23.00;99.90
16814;DHT22;8524;57.650;11.926;2023-06-26T14:10:36;22.70;99.90
16814;DHT22;8524;57.650;11.926;2023-06-26T14:13:04;22.40;99.90
16814;DHT22;8524;57.650;11.926;2023-06-26T14:15:32;22.20;99.90
16814;DHT22;8524;57.650;11.926;2023-06-26T14:18:00;22.00;99.90
16814;DHT22;8524;57.650;11.926;2023-06-26T14:20:30;21.70;99.90
16814;DHT22;8524;57.650;11.926;2023-06-26T14:22:58;21.60;99.90
16814;DHT22;8524;57.650;11.926;2023-06-26T14:25:26;21.50;99.90
16814;DHT22;8524;57.650;11.926;2023-06-26T14:27:54;21.20;99.90
16814;DHT22;8524;57.650;11.926;2023-06-26T14:30:21;20.90;99.90
16814;DHT22;8524;57.650;11.926;2023-06-26T14:32:48;20.70;99.90
16814;DHT22;8524;57.650;11.926;2023-06-26T14:35:17;20.50;99.90
16814;DHT22;8524;57.650;11.926;2023-06-26T14:37:44;20.40;99.90
16814;DHT22;8524;57.650;11.926;2023-06-26T14:40:12;20.30;99.90
16814;DHT22;8524;57.650;11.926;2023-06-26T14:42:39;20.20;99.90
16814;DHT22;8524;57.650;11.926;2023-06-26T14:45:09;20.10;99.90
16814;DHT22;8524;57.650;11.926;2023-06-26T14:47:36;19.90;99.90
16814;DHT22;8524;57.650;11.926;2023-06-26T14:50:04;19.80;99.90
16814;DHT22;8524;57.650;11.926;2023-06-26T14:52:33;19.70;99.90
16814;DHT22;8524;57.650;11.926;2023-06-26T14:55:00;19.60;99.90
16814;DHT22;8524;57.650;11.926;2023-06-26T14:57:27;19.60;99.90
16814;DHT22;8524;57.650;11.926;2023-06-26T14:59:54;19.50;99.90
16814;DHT22;8524;57.650;11.926;2023-06-26T15:02:21;19.40;99.90
16814;DHT22;8524;57.650;11.926;2023-06-26T15:04:48;19.30;99.90
16814;DHT22;8524;57.650;11.926;2023-06-26T15:07:15;19.20;99.90
16814;DHT22;8524;57.650;11.926;2023-06-26T15:09:43;19.10;99.90
16814;DHT22;8524;57.650;11.926;2023-06-26T15:12:10;19.10;99.90
16814;DHT22;8524;57.650;11.926;2023-06-26T15:14:38;19.10;99.90
16814;DHT22;8524;57.650;11.926;2023-06-26T15:17:05;19.00;99.90
16814;DHT22;8524;57.650;11.926;2023-06-26T15:19:33;18.90;99.90
16814;DHT22;8524;57.650;11.926;2023-06-26T15:22:00;18.90;99.90
16814;DHT22;8524;57.650;11.926;2023-06-26T15:24:27;18.80;99.90
16814;DHT22;8524;57.650;11.926;2023-06-26T15:26:55;18.80;99.90
16814;DHT22;8524;57.650;11.926;2023-06-26T15:29:23;18.80;99.90
16814;DHT22;8524;57.650;11.926;2023-06-26T15:31:50;18.70;99.90
16814;DHT22;8524;57.650;11.926;2023-06-26T15:34:17;18.60;99.90
16814;DHT22;8524;57.650;11.926;2023-06-26T15:36:44;18.50;99.90